createdAt,value
2018-05-17T00:02:14.808Z,11.10
2018-05-17T00:04:42.528Z,10.73
2018-05-17T00:07:10.231Z,10.80
2018-05-17T00:09:37.698Z,12.70
2018-05-17T00:12:05.163Z,12.60
2018-05-17T00:14:32.917Z,12.00
2018-05-17T00:17:00.362Z,12.00
2018-05-17T00:19:27.825Z,11.33
2018-05-17T00:21:55.287Z,11.00
2018-05-17T00:24:22.744Z,11.40
2018-05-17T00:26:50.655Z,12.00
2018-05-17T00:29:18.525Z,12.30
2018-05-17T00:31:48.405Z,12.57
2018-05-17T00:34:17.906Z,13.20
2018-05-17T00:36:46.731Z,13.20
2018-05-17T00:39:14.181Z,15.40
2018-05-17T00:41:41.641Z,13.87
2018-05-17T00:44:09.095Z,14.83
2018-05-17T00:46:37.352Z,16.03
2018-05-17T00:49:04.817Z,15.50
2018-05-17T00:51:32.270Z,14.93
2018-05-17T00:53:59.756Z,14.13
2018-05-17T00:56:27.213Z,14.17
2018-05-17T00:58:56.837Z,13.27
2018-05-17T01:01:25.773Z,13.43
2018-05-17T01:03:53.800Z,13.57
2018-05-17T01:06:22.028Z,14.10
2018-05-17T01:08:49.484Z,14.10
2018-05-17T01:11:17.370Z,14.53
2018-05-17T01:13:44.825Z,15.23
2018-05-17T01:16:12.272Z,15.00
2018-05-17T01:18:39.747Z,15.93
2018-05-17T01:21:07.443Z,15.43
2018-05-17T01:23:34.899Z,15.90
2018-05-17T01:26:02.381Z,15.70
2018-05-17T01:28:30.277Z,16.30
2018-05-17T01:30:57.755Z,16.93
2018-05-17T01:33:25.212Z,16.77
2018-05-17T01:35:54.004Z,17.13
2018-05-17T01:38:27.181Z,17.60
2018-05-17T01:40:55.296Z,17.83
2018-05-17T01:43:22.768Z,18.27
2018-05-17T01:45:50.234Z,20.30
2018-05-17T01:48:17.807Z,19.40
2018-05-17T01:50:45.901Z,18.90
2018-05-17T01:53:13.612Z,19.03
2018-05-17T01:55:41.494Z,19.50
2018-05-17T01:58:08.976Z,19.00
2018-05-17T02:00:36.431Z,19.40
2018-05-17T02:03:06.441Z,20.17
2018-05-17T02:05:34.465Z,19.97
2018-05-17T02:08:02.354Z,20.00
2018-05-17T02:10:29.820Z,19.63
2018-05-17T02:12:57.282Z,20.80
2018-05-17T02:15:24.791Z,20.37
2018-05-17T02:17:53.023Z,19.53
2018-05-17T02:20:21.738Z,20.07
2018-05-17T02:22:52.104Z,19.37
2018-05-17T02:25:19.551Z,18.97
2018-05-17T02:27:47.416Z,19.40
2018-05-17T02:30:14.898Z,19.43
2018-05-17T02:32:42.927Z,19.23
2018-05-17T02:35:11.135Z,19.50
2018-05-17T02:37:38.605Z,19.33
2018-05-17T02:40:06.056Z,18.60
2018-05-17T02:42:33.519Z,18.83
2018-05-17T02:45:01.543Z,17.63
2018-05-17T02:47:29.919Z,19.20
2018-05-17T02:49:58.133Z,18.47
2018-05-17T02:52:25.596Z,18.10
2018-05-17T02:54:53.313Z,19.17
2018-05-17T02:57:21.564Z,18.60
2018-05-17T02:59:49.023Z,19.03
2018-05-17T03:02:16.489Z,19.17
2018-05-17T03:04:44.805Z,18.93
2018-05-17T03:07:12.266Z,19.83
2018-05-17T03:09:40.289Z,19.47
2018-05-17T03:12:07.744Z,19.93
2018-05-17T03:14:35.639Z,20.40
2018-05-17T03:17:03.864Z,20.43
2018-05-17T03:19:31.327Z,20.47
2018-05-17T03:21:58.790Z,21.37
2018-05-17T03:24:26.243Z,20.10
2018-05-17T03:26:54.108Z,20.63
2018-05-17T03:29:21.590Z,22.13
2018-05-17T03:31:49.042Z,21.70
2018-05-17T03:34:16.507Z,21.47
2018-05-17T03:36:45.013Z,20.60
2018-05-17T03:39:12.467Z,20.27
2018-05-17T03:41:39.948Z,20.37
2018-05-17T03:44:07.420Z,18.87
2018-05-17T03:46:37.292Z,18.87
2018-05-17T03:49:04.761Z,17.30
2018-05-17T03:51:34.080Z,18.20
2018-05-17T03:54:01.532Z,17.93
2018-05-17T03:56:29.530Z,17.93
2018-05-17T03:58:56.999Z,17.40
2018-05-17T04:01:36.915Z,17.60
2018-05-17T04:04:17.136Z,16.00
2018-05-17T04:06:45.363Z,16.70
2018-05-17T04:09:12.827Z,15.43
2018-05-17T04:11:40.972Z,15.13
2018-05-17T04:14:08.430Z,14.60
2018-05-17T04:16:36.431Z,13.53
2018-05-17T04:19:03.896Z,12.87
2018-05-17T04:21:31.348Z,13.83
2018-05-17T04:23:59.240Z,13.60
2018-05-17T04:26:27.728Z,14.33
2018-05-17T04:28:56.092Z,12.90
2018-05-17T04:31:23.548Z,13.20
2018-05-17T04:33:51.009Z,11.47
2018-05-17T04:36:18.468Z,12.30
2018-05-17T04:38:46.693Z,11.03
2018-05-17T04:41:14.153Z,10.40
2018-05-17T04:43:41.628Z,10.60
2018-05-17T04:46:09.093Z,11.47
2018-05-17T04:48:36.555Z,10.00
2018-05-17T04:51:04.021Z,10.70
2018-05-17T04:53:31.479Z,9.77
2018-05-17T04:55:59.160Z,10.00
2018-05-17T04:58:27.375Z,9.80
2018-05-17T05:00:54.831Z,9.10
2018-05-17T05:03:22.848Z,9.27
2018-05-17T05:05:51.076Z,8.83
2018-05-17T05:08:18.537Z,9.13
2018-05-17T05:10:45.999Z,8.53
2018-05-17T05:13:18.791Z,7.47
2018-05-17T05:15:46.962Z,8.60
2018-05-17T05:18:14.423Z,8.93
2018-05-17T05:20:42.584Z,7.67
2018-05-17T05:23:10.045Z,7.80
2018-05-17T05:25:37.940Z,7.50
2018-05-17T05:28:05.426Z,7.20
2018-05-17T05:30:33.640Z,7.30
2018-05-17T05:33:13.624Z,7.07
2018-05-17T05:35:41.084Z,6.87
2018-05-17T05:38:08.541Z,6.30
2018-05-17T05:40:36.948Z,7.07
2018-05-17T05:43:04.400Z,6.57
2018-05-17T05:45:31.882Z,6.90
2018-05-17T05:47:59.752Z,6.63
2018-05-17T05:50:30.688Z,6.37
2018-05-17T05:52:58.732Z,6.53
2018-05-17T05:55:26.624Z,6.10
2018-05-17T05:57:54.098Z,6.27
2018-05-17T06:00:21.564Z,6.27
2018-05-17T06:02:49.017Z,6.27
2018-05-17T06:05:17.637Z,6.10
2018-05-17T06:07:46.266Z,6.23
2018-05-17T06:10:14.176Z,5.80
2018-05-17T06:12:41.654Z,5.77
2018-05-17T06:15:09.894Z,5.53
2018-05-17T06:17:37.353Z,6.27
2018-05-17T06:20:04.813Z,5.47
2018-05-17T06:22:32.701Z,5.50
2018-05-17T06:25:00.149Z,6.13
2018-05-17T06:27:28.417Z,6.10
2018-05-17T06:29:55.876Z,5.10
2018-05-17T06:32:23.336Z,6.13
2018-05-17T06:34:51.613Z,5.50
2018-05-17T06:37:19.071Z,5.63
2018-05-17T06:39:46.536Z,5.77
2018-05-17T06:42:14.020Z,6.10
2018-05-17T06:44:42.233Z,5.20
2018-05-17T06:47:09.687Z,4.90
2018-05-17T06:49:37.557Z,5.17
2018-05-17T06:52:05.028Z,5.13
2018-05-17T06:54:32.488Z,4.93
2018-05-17T06:56:59.953Z,4.70
2018-05-17T07:02:10.129Z,4.83
2018-05-17T07:04:37.600Z,4.53
2018-05-17T07:07:05.952Z,4.17
2018-05-17T07:09:33.405Z,4.87
2018-05-17T07:12:00.892Z,4.53
2018-05-17T07:14:29.124Z,4.37
2018-05-17T07:16:56.584Z,3.60
2018-05-17T07:19:24.082Z,3.60
2018-05-17T07:21:52.344Z,3.40
2018-05-17T07:24:20.416Z,4.20
2018-05-17T07:26:48.337Z,4.00
2018-05-17T07:29:15.794Z,3.90
2018-05-17T07:31:44.434Z,3.43
2018-05-17T07:34:12.169Z,3.83
2018-05-17T07:36:39.662Z,4.13
2018-05-17T07:39:07.993Z,3.70
2018-05-17T07:41:35.817Z,4.07
2018-05-17T07:44:04.050Z,4.33
2018-05-17T07:46:31.524Z,3.83
2018-05-17T07:48:59.609Z,4.43
2018-05-17T07:51:27.900Z,3.83
2018-05-17T07:53:55.911Z,3.30
2018-05-17T07:56:26.224Z,4.23
2018-05-17T07:58:54.112Z,3.40
2018-05-17T08:01:22.131Z,3.57
2018-05-17T08:03:51.084Z,3.67
2018-05-17T08:06:18.555Z,3.70
2018-05-17T08:08:47.137Z,3.70
2018-05-17T08:11:15.089Z,3.40
2018-05-17T08:13:42.528Z,3.40
2018-05-17T08:16:10.369Z,3.50
2018-05-17T08:18:37.832Z,3.60
2018-05-17T08:21:05.284Z,3.60
2018-05-17T08:23:32.748Z,3.30
2018-05-17T08:26:00.201Z,3.63
2018-05-17T08:28:27.684Z,3.87
2018-05-17T08:30:55.270Z,4.00
2018-05-17T08:33:23.143Z,4.17
2018-05-17T08:35:51.361Z,4.10
2018-05-17T08:38:18.839Z,3.83
2018-05-17T08:40:46.628Z,2.93
2018-05-17T08:43:14.507Z,2.97
2018-05-17T08:45:42.826Z,3.60
2018-05-17T08:48:10.204Z,3.03
2018-05-17T08:50:37.663Z,3.13
2018-05-17T08:53:05.549Z,3.23
2018-05-17T08:55:33.006Z,3.43
2018-05-17T08:58:00.458Z,3.33
2018-05-17T09:00:27.920Z,3.13
2018-05-17T09:02:55.381Z,3.17
2018-05-17T09:05:23.549Z,3.27
2018-05-17T09:07:51.807Z,3.40
2018-05-17T09:10:19.292Z,3.23
2018-05-17T09:12:46.740Z,3.40
2018-05-17T09:15:14.192Z,3.67
2018-05-17T09:17:41.652Z,2.83
2018-05-17T09:20:09.201Z,4.10
2018-05-17T09:22:36.581Z,2.93
2018-05-17T09:25:05.065Z,3.80
2018-05-17T09:27:33.787Z,3.10
2018-05-17T09:30:01.482Z,3.30
2018-05-17T09:32:28.948Z,3.13
2018-05-17T09:34:56.422Z,2.90
2018-05-17T09:37:23.869Z,2.70
2018-05-17T09:39:51.320Z,2.93
2018-05-17T09:42:18.775Z,2.83
2018-05-17T09:44:46.228Z,2.90
2018-05-17T09:47:14.103Z,3.27
2018-05-17T09:49:41.553Z,3.03
2018-05-17T09:52:09.581Z,2.80
2018-05-17T09:54:37.028Z,2.60
2018-05-17T09:57:04.755Z,2.70
2018-05-17T09:59:32.547Z,3.43
2018-05-17T10:02:01.192Z,3.07
2018-05-17T10:04:29.997Z,3.00
2018-05-17T10:06:57.458Z,3.30
2018-05-17T10:09:25.059Z,2.62
2018-05-17T10:11:52.525Z,2.62
2018-05-17T10:14:20.054Z,2.90
2018-05-17T10:16:48.328Z,3.03
2018-05-17T10:19:16.811Z,3.28
2018-05-17T10:21:45.440Z,2.47
2018-05-17T10:24:14.014Z,3.22
2018-05-17T10:26:41.641Z,3.55
2018-05-17T10:29:09.931Z,3.35
2018-05-17T10:31:37.477Z,3.62
2018-05-17T10:34:05.993Z,3.17
2018-05-17T10:36:33.609Z,3.20
2018-05-17T10:39:02.028Z,3.22
2018-05-17T10:41:30.000Z,2.87
2018-05-17T10:43:58.047Z,3.30
2018-05-17T10:46:25.789Z,2.67
2018-05-17T10:48:54.044Z,3.25
2018-05-17T10:51:22.116Z,3.10
2018-05-17T10:53:49.569Z,3.37
2018-05-17T10:56:17.143Z,3.30
2018-05-17T10:58:45.820Z,2.65
2018-05-17T11:01:13.282Z,3.47
2018-05-17T11:03:41.286Z,3.00
2018-05-17T11:06:08.813Z,3.15
2018-05-17T11:08:36.293Z,3.25
2018-05-17T11:11:04.157Z,3.17
2018-05-17T11:13:33.166Z,3.40
2018-05-17T11:16:00.674Z,2.75
2018-05-17T11:18:28.530Z,2.90
2018-05-17T11:20:56.151Z,3.00
2018-05-17T11:23:23.803Z,2.85
2018-05-17T11:25:52.090Z,2.87
2018-05-17T11:28:20.407Z,3.33
2018-05-17T11:30:47.947Z,3.50
2018-05-17T11:33:15.996Z,3.28
2018-05-17T11:35:43.695Z,2.92
2018-05-17T11:38:11.217Z,3.33
2018-05-17T11:40:39.088Z,3.28
2018-05-17T11:43:06.569Z,2.90
2018-05-17T11:45:34.408Z,3.00
2018-05-17T11:48:01.904Z,3.17
2018-05-17T11:50:29.432Z,2.92
2018-05-17T11:52:56.817Z,3.35
2018-05-17T11:55:24.264Z,3.35
2018-05-17T11:57:51.833Z,4.05
2018-05-17T12:00:19.389Z,4.50
2018-05-17T12:02:53.511Z,4.10
2018-05-17T12:05:20.977Z,4.25
2018-05-17T12:07:48.628Z,4.62
2018-05-17T12:10:16.083Z,4.00
2018-05-17T12:12:45.043Z,4.00
2018-05-17T12:15:12.540Z,4.22
2018-05-17T12:17:39.997Z,5.05
2018-05-17T12:20:07.482Z,4.32
2018-05-17T12:22:35.724Z,4.30
2018-05-17T12:25:03.168Z,3.45
2018-05-17T12:27:31.203Z,4.47
2018-05-17T12:29:58.846Z,3.72
2018-05-17T12:32:27.090Z,3.97
2018-05-17T12:34:54.621Z,4.62
2018-05-17T12:37:22.104Z,4.50
2018-05-17T12:39:49.551Z,4.60
2018-05-17T12:42:17.033Z,5.28
2018-05-17T12:44:44.497Z,3.78
2018-05-17T12:47:12.736Z,4.25
2018-05-17T12:49:40.215Z,3.90
2018-05-17T12:52:07.671Z,4.05
2018-05-17T12:54:35.585Z,4.40
2018-05-17T12:57:03.046Z,4.62
2018-05-17T12:59:30.529Z,5.00
2018-05-17T13:01:57.986Z,3.92
2018-05-17T13:04:25.452Z,4.43
2018-05-17T13:06:53.370Z,4.22
2018-05-17T13:09:20.812Z,3.78
2018-05-17T13:11:49.048Z,4.68
2018-05-17T13:14:16.506Z,4.40
2018-05-17T13:16:43.972Z,4.55
2018-05-17T13:19:11.530Z,4.78
2018-05-17T13:21:39.089Z,5.00
2018-05-17T13:24:06.634Z,5.57
2018-05-17T13:26:34.543Z,5.03
2018-05-17T13:29:02.076Z,5.18
2018-05-17T13:31:29.647Z,5.45
2018-05-17T13:33:57.504Z,5.18
2018-05-17T13:36:25.275Z,5.40
2018-05-17T13:38:54.035Z,5.75
2018-05-17T13:41:23.227Z,6.07
2018-05-17T13:43:51.208Z,5.87
2018-05-17T13:46:18.688Z,6.18
2018-05-17T13:48:46.155Z,6.18
2018-05-17T13:51:13.625Z,6.25
2018-05-17T13:53:42.039Z,5.90
2018-05-17T13:56:09.573Z,5.45
2018-05-17T13:58:38.758Z,6.80
2018-05-17T14:01:06.740Z,6.80
2018-05-17T14:03:34.972Z,7.85
2018-05-17T14:06:02.453Z,7.55
2018-05-17T14:08:30.631Z,7.93
2018-05-17T14:10:58.090Z,7.85
2018-05-17T14:13:25.531Z,8.32
2018-05-17T14:15:53.273Z,7.68
2018-05-17T14:18:21.626Z,7.75
2018-05-17T14:20:49.082Z,8.13
2018-05-17T14:23:16.593Z,8.57
2018-05-17T14:25:44.955Z,9.10
2018-05-17T14:28:12.416Z,9.60
2018-05-17T14:30:39.886Z,9.23
2018-05-17T14:33:07.477Z,8.60
2018-05-17T14:35:34.927Z,9.27
2018-05-17T14:38:02.388Z,9.90
2018-05-17T14:40:29.902Z,10.52
2018-05-17T14:42:57.676Z,10.60
2018-05-17T14:45:25.152Z,9.63
2018-05-17T14:47:53.412Z,9.15
2018-05-17T14:50:21.569Z,8.05
2018-05-17T14:52:49.136Z,8.73
2018-05-17T14:55:17.433Z,9.30
2018-05-17T14:57:44.867Z,8.52
2018-05-17T15:00:12.849Z,8.13
2018-05-17T15:02:40.741Z,8.82
2018-05-17T15:05:08.972Z,9.00
2018-05-17T15:07:36.428Z,8.80
2018-05-17T15:10:05.835Z,9.65
2018-05-17T15:12:33.287Z,9.30
2018-05-17T15:15:00.751Z,9.63
2018-05-17T15:17:28.222Z,9.38
2018-05-17T15:19:55.673Z,9.68
2018-05-17T15:22:23.128Z,8.90
2018-05-17T15:24:50.591Z,9.27
2018-05-17T15:27:18.153Z,8.65
2018-05-17T15:29:47.451Z,9.80
2018-05-17T15:32:16.283Z,9.35
2018-05-17T15:34:45.287Z,8.95
2018-05-17T15:37:12.851Z,8.27
2018-05-17T15:39:40.336Z,8.15
2018-05-17T15:42:07.812Z,7.50
2018-05-17T15:44:35.359Z,8.73
2018-05-17T15:47:02.835Z,8.43
2018-05-17T15:49:31.056Z,7.55
2018-05-17T15:51:58.513Z,6.45
2018-05-17T15:54:26.012Z,6.97
2018-05-17T15:56:53.459Z,6.62
2018-05-17T15:59:20.921Z,6.90
2018-05-17T16:01:48.384Z,6.93
2018-05-17T16:04:15.849Z,7.07
2018-05-17T16:06:43.391Z,7.00
2018-05-17T16:09:12.359Z,7.80
2018-05-17T16:11:39.848Z,6.90
2018-05-17T16:14:07.312Z,6.60
2018-05-17T16:16:34.827Z,7.15
2018-05-17T16:19:02.292Z,6.62
2018-05-17T16:21:29.759Z,6.68
2018-05-17T16:23:57.211Z,6.70
2018-05-17T16:26:24.684Z,6.00
2018-05-17T16:28:52.149Z,5.93
2018-05-17T16:31:20.200Z,6.05
2018-05-17T16:33:47.655Z,7.30
2018-05-17T16:36:15.111Z,6.75
2018-05-17T16:38:42.584Z,5.80
2018-05-17T16:41:10.049Z,5.32
2018-05-17T16:43:38.180Z,5.97
2018-05-17T16:46:05.650Z,5.68
2018-05-17T16:48:33.122Z,5.72
2018-05-17T16:51:00.679Z,5.40
2018-05-17T16:53:28.238Z,5.82
2018-05-17T16:55:55.800Z,6.10
2018-05-17T16:58:23.263Z,5.57
2018-05-17T17:00:50.748Z,5.68
2018-05-17T17:03:18.973Z,5.80
2018-05-17T17:05:46.933Z,5.60
2018-05-17T17:08:15.125Z,5.90
2018-05-17T17:10:42.592Z,5.47
2018-05-17T17:13:10.255Z,5.70
2018-05-17T17:15:37.811Z,5.22
2018-05-17T17:18:05.291Z,5.15
2018-05-17T17:20:32.869Z,4.65
2018-05-17T17:23:01.118Z,4.60
2018-05-17T17:25:28.660Z,5.12
2018-05-17T17:27:56.219Z,4.93
2018-05-17T17:30:23.794Z,4.97
2018-05-17T17:32:51.235Z,4.50
2018-05-17T17:35:18.907Z,4.07
2018-05-17T17:37:46.364Z,4.25
2018-05-17T17:40:13.824Z,4.00
2018-05-17T17:42:41.668Z,4.53
2018-05-17T17:45:09.128Z,4.20
2018-05-17T17:47:36.581Z,4.20
2018-05-17T17:50:04.812Z,4.15
2018-05-17T17:52:33.037Z,3.50
2018-05-17T17:55:00.496Z,3.67
2018-05-17T17:57:27.952Z,3.90
2018-05-17T17:59:55.685Z,4.37
2018-05-17T18:02:23.136Z,4.65
2018-05-17T18:04:51.426Z,3.30
2018-05-17T18:07:19.984Z,3.77
2018-05-17T18:09:48.048Z,3.83
2018-05-17T18:12:17.459Z,4.40
2018-05-17T18:14:46.609Z,3.63
2018-05-17T18:17:14.546Z,3.60
2018-05-17T18:19:43.725Z,3.67
2018-05-17T18:22:11.609Z,2.90
2018-05-17T18:24:39.854Z,4.00
2018-05-17T18:27:08.138Z,3.73
2018-05-17T18:29:36.256Z,3.43
2018-05-17T18:32:04.909Z,3.60
2018-05-17T18:34:34.017Z,4.27
2018-05-17T18:37:02.205Z,3.27
2018-05-17T18:39:30.508Z,3.23
2018-05-17T18:41:58.556Z,3.73
2018-05-17T18:44:26.034Z,2.90
2018-05-17T18:46:53.485Z,4.20
2018-05-17T18:49:20.955Z,3.93
2018-05-17T18:51:48.408Z,3.20
2018-05-17T18:54:16.333Z,3.40
2018-05-17T18:56:43.794Z,3.83
2018-05-17T18:59:11.260Z,4.43
2018-05-17T19:01:39.143Z,3.13
2018-05-17T19:04:06.600Z,3.27
2018-05-17T19:06:34.067Z,3.73
2018-05-17T19:09:01.530Z,4.03
2018-05-17T19:11:28.983Z,3.40
2018-05-17T19:13:56.456Z,3.43
2018-05-17T19:16:23.912Z,3.90
2018-05-17T19:18:51.394Z,3.20
2018-05-17T19:21:19.633Z,3.73
2018-05-17T19:23:47.114Z,3.40
2018-05-17T19:26:15.336Z,3.50
2018-05-17T19:28:43.396Z,4.03
2018-05-17T19:31:11.607Z,3.60
2018-05-17T19:33:39.071Z,2.90
2018-05-17T19:36:07.514Z,3.40
2018-05-17T19:38:34.927Z,3.47
2018-05-17T19:41:05.045Z,3.77
2018-05-17T19:43:32.496Z,3.43
2018-05-17T19:45:59.961Z,3.57
2018-05-17T19:48:28.402Z,3.93
2018-05-17T19:50:55.884Z,4.20
2018-05-17T19:53:23.364Z,3.87
2018-05-17T19:55:51.594Z,3.60
2018-05-17T19:58:19.072Z,3.37
2018-05-17T20:00:46.538Z,4.20
2018-05-17T20:03:13.992Z,3.53
2018-05-17T20:05:42.071Z,3.80
2018-05-17T20:08:10.424Z,3.20
2018-05-17T20:10:38.505Z,3.20
2018-05-17T20:13:06.391Z,3.50
2018-05-17T20:15:34.621Z,4.33
2018-05-17T20:18:02.848Z,3.73
2018-05-17T20:20:31.540Z,4.63
2018-05-17T20:22:59.788Z,3.13
2018-05-17T20:25:27.253Z,3.53
2018-05-17T20:27:54.701Z,3.47
2018-05-17T20:30:22.155Z,4.00
2018-05-17T20:32:49.617Z,3.50
2018-05-17T20:35:17.075Z,3.37
2018-05-17T20:37:44.532Z,3.83
2018-05-17T20:40:11.993Z,3.50
2018-05-17T20:42:40.100Z,3.40
2018-05-17T20:45:07.578Z,3.03
2018-05-17T20:47:35.031Z,3.60
2018-05-17T20:50:02.493Z,3.70
2018-05-17T20:52:29.965Z,3.10
2018-05-17T20:54:57.439Z,3.97
2018-05-17T20:57:24.948Z,2.90
2018-05-17T20:59:52.669Z,3.53
2018-05-17T21:02:20.120Z,3.20
2018-05-17T21:04:47.584Z,4.23
2018-05-17T21:07:15.095Z,3.60
2018-05-17T21:09:42.804Z,4.17
2018-05-17T21:12:10.277Z,3.60
2018-05-17T21:14:38.497Z,3.40
2018-05-17T21:17:05.951Z,3.33
2018-05-17T21:19:33.405Z,3.30
2018-05-17T21:22:00.870Z,4.23
2018-05-17T21:24:28.320Z,3.33
2018-05-17T21:26:56.730Z,3.83
2018-05-17T21:29:24.408Z,3.20
2018-05-17T21:31:52.371Z,2.93
2018-05-17T21:34:19.844Z,3.63
2018-05-17T21:36:48.183Z,3.67
2018-05-17T21:39:18.185Z,3.70
2018-05-17T21:41:45.649Z,3.27
2018-05-17T21:44:13.114Z,3.73
2018-05-17T21:46:40.570Z,3.70
2018-05-17T21:49:08.009Z,3.17
2018-05-17T21:51:35.462Z,3.33
2018-05-17T21:54:02.945Z,3.40
2018-05-17T21:56:30.401Z,3.73
2018-05-17T21:58:57.848Z,3.53
2018-05-17T22:01:26.064Z,4.50
2018-05-17T22:03:53.519Z,3.30
2018-05-17T22:06:20.967Z,4.10
2018-05-17T22:08:48.450Z,3.60
2018-05-17T22:11:15.982Z,3.67
2018-05-17T22:13:43.431Z,3.40
2018-05-17T22:16:10.898Z,3.50
2018-05-17T22:18:38.368Z,3.30
2018-05-17T22:21:05.904Z,3.20
2018-05-17T22:23:33.363Z,3.10
2018-05-17T22:26:00.840Z,3.27
2018-05-17T22:28:28.297Z,3.20
2018-05-17T22:30:55.756Z,3.50
2018-05-17T22:33:23.984Z,3.20
2018-05-17T22:35:51.538Z,3.87
2018-05-17T22:38:18.924Z,3.20
2018-05-17T22:40:46.390Z,3.37
2018-05-17T22:43:14.417Z,3.93
2018-05-17T22:45:43.803Z,3.20
2018-05-17T22:48:11.316Z,3.00
2018-05-17T22:50:39.577Z,3.30
2018-05-17T22:53:07.071Z,3.50
2018-05-17T22:55:35.335Z,3.63
2018-05-17T22:58:14.516Z,4.00
2018-05-17T23:00:42.526Z,3.93
2018-05-17T23:03:10.003Z,3.77
2018-05-17T23:05:37.473Z,3.93
2018-05-17T23:08:06.684Z,3.73
2018-05-17T23:10:34.156Z,3.67
2018-05-17T23:13:01.625Z,3.27
2018-05-17T23:15:29.083Z,3.43
2018-05-17T23:17:56.553Z,3.43
2018-05-17T23:20:24.020Z,3.23
2018-05-17T23:22:51.900Z,3.87
2018-05-17T23:25:19.419Z,3.60
2018-05-17T23:27:46.876Z,3.20
2018-05-17T23:30:14.950Z,3.87
2018-05-17T23:32:42.396Z,3.77
2018-05-17T23:35:13.297Z,3.43
2018-05-17T23:37:41.522Z,4.37
2018-05-17T23:43:11.260Z,3.87
2018-05-17T23:45:38.723Z,4.10
2018-05-17T23:48:06.184Z,4.33
2018-05-17T23:50:33.652Z,4.13
2018-05-17T23:53:01.112Z,3.57
2018-05-17T23:55:28.572Z,3.67
2018-05-17T23:57:56.019Z,3.90
